sensor_id;sensor_type;location;lat;lon;timestamp;P1;durP1;ratioP1;P2;durP2;ratioP2
17414;SDS011;8825;48.086;16.426;2023-01-01T00:01:07;50.00;;;43.30;;
17414;SDS011;8825;48.086;16.426;2023-01-01T00:03:36;51.58;;;45.45;;
17414;SDS011;8825;48.086;16.426;2023-01-01T00:06:05;46.53;;;41.13;;
17414;SDS011;8825;48.086;16.426;2023-01-01T00:08:34;51.88;;;45.38;;
17414;SDS011;8825;48.086;16.426;2023-01-01T00:11:03;54.35;;;47.50;;
17414;SDS011;8825;48.086;16.426;2023-01-01T00:13:32;51.13;;;43.30;;
17414;SDS011;8825;48.086;16.426;2023-01-01T00:16:07;49.48;;;44.03;;
17414;SDS011;8825;48.086;16.426;2023-01-01T00:18:37;50.90;;;44.63;;
17414;SDS011;8825;48.086;16.426;2023-01-01T00:21:07;52.25;;;45.25;;
17414;SDS011;8825;48.086;16.426;2023-01-01T00:23:39;57.27;;;50.65;;
17414;SDS011;8825;48.086;16.426;2023-01-01T00:26:14;62.53;;;53.13;;
17414;SDS011;8825;48.086;16.426;2023-01-01T00:28:43;68.12;;;57.17;;
17414;SDS011;8825;48.086;16.426;2023-01-01T00:31:13;68.45;;;57.65;;
17414;SDS011;8825;48.086;16.426;2023-01-01T00:33:43;69.80;;;61.70;;
17414;SDS011;8825;48.086;16.426;2023-01-01T00:36:18;71.13;;;59.47;;
17414;SDS011;8825;48.086;16.426;2023-01-01T00:38:47;71.33;;;59.10;;
17414;SDS011;8825;48.086;16.426;2023-01-01T00:41:15;79.53;;;66.55;;
17414;SDS011;8825;48.086;16.426;2023-01-01T00:43:43;77.80;;;66.10;;
17414;SDS011;8825;48.086;16.426;2023-01-01T00:46:11;89.67;;;77.58;;
17414;SDS011;8825;48.086;16.426;2023-01-01T00:48:40;78.42;;;66.05;;
17414;SDS011;8825;48.086;16.426;2023-01-01T00:51:07;74.70;;;66.55;;
17414;SDS011;8825;48.086;16.426;2023-01-01T00:53:35;69.85;;;59.85;;
17414;SDS011;8825;48.086;16.426;2023-01-01T00:56:03;71.77;;;62.40;;
17414;SDS011;8825;48.086;16.426;2023-01-01T00:58:31;65.10;;;57.33;;
17414;SDS011;8825;48.086;16.426;2023-01-01T01:00:59;68.70;;;60.88;;
17414;SDS011;8825;48.086;16.426;2023-01-01T01:03:27;67.22;;;60.03;;
17414;SDS011;8825;48.086;16.426;2023-01-01T01:06:14;69.27;;;61.77;;
17414;SDS011;8825;48.086;16.426;2023-01-01T01:08:31;79.37;;;69.07;;
17414;SDS011;8825;48.086;16.426;2023-01-01T01:13:43;110.95;;;98.67;;
17414;SDS011;8825;48.086;16.426;2023-01-01T01:16:16;115.13;;;100.93;;
17414;SDS011;8825;48.086;16.426;2023-01-01T01:18:49;85.53;;;75.90;;
17414;SDS011;8825;48.086;16.426;2023-01-01T01:21:19;73.78;;;65.78;;
17414;SDS011;8825;48.086;16.426;2023-01-01T01:23:48;68.30;;;60.78;;
17414;SDS011;8825;48.086;16.426;2023-01-01T01:26:17;68.45;;;59.03;;
17414;SDS011;8825;48.086;16.426;2023-01-01T01:28:47;58.95;;;52.45;;
17414;SDS011;8825;48.086;16.426;2023-01-01T01:31:15;52.60;;;46.85;;
17414;SDS011;8825;48.086;16.426;2023-01-01T01:33:44;52.65;;;46.90;;
17414;SDS011;8825;48.086;16.426;2023-01-01T01:36:13;49.18;;;43.98;;
17414;SDS011;8825;48.086;16.426;2023-01-01T01:38:41;47.73;;;42.55;;
17414;SDS011;8825;48.086;16.426;2023-01-01T01:41:10;48.70;;;43.23;;
17414;SDS011;8825;48.086;16.426;2023-01-01T01:48:45;46.37;;;41.45;;
17414;SDS011;8825;48.086;16.426;2023-01-01T01:51:15;46.55;;;41.28;;
17414;SDS011;8825;48.086;16.426;2023-01-01T01:53:49;50.20;;;43.75;;
17414;SDS011;8825;48.086;16.426;2023-01-01T01:56:19;50.85;;;43.05;;
17414;SDS011;8825;48.086;16.426;2023-01-01T01:58:57;49.27;;;42.03;;
17414;SDS011;8825;48.086;16.426;2023-01-01T02:01:25;49.53;;;43.52;;
17414;SDS011;8825;48.086;16.426;2023-01-01T02:03:59;53.48;;;44.70;;
17414;SDS011;8825;48.086;16.426;2023-01-01T02:06:28;54.77;;;45.55;;
17414;SDS011;8825;48.086;16.426;2023-01-01T02:08:58;58.65;;;50.35;;
17414;SDS011;8825;48.086;16.426;2023-01-01T02:11:28;52.25;;;46.15;;
17414;SDS011;8825;48.086;16.426;2023-01-01T02:13:56;48.83;;;42.67;;
17414;SDS011;8825;48.086;16.426;2023-01-01T02:18:58;53.20;;;46.42;;
17414;SDS011;8825;48.086;16.426;2023-01-01T02:21:29;51.92;;;46.00;;
17414;SDS011;8825;48.086;16.426;2023-01-01T02:23:59;50.90;;;44.05;;
17414;SDS011;8825;48.086;16.426;2023-01-01T02:26:45;92.15;;;76.33;;
17414;SDS011;8825;48.086;16.426;2023-01-01T02:31:56;67.85;;;58.55;;
17414;SDS011;8825;48.086;16.426;2023-01-01T02:34:28;62.15;;;52.95;;
17414;SDS011;8825;48.086;16.426;2023-01-01T02:36:57;66.53;;;58.42;;
17414;SDS011;8825;48.086;16.426;2023-01-01T02:39:28;65.00;;;53.75;;
17414;SDS011;8825;48.086;16.426;2023-01-01T02:41:59;76.47;;;56.33;;
17414;SDS011;8825;48.086;16.426;2023-01-01T02:44:29;84.72;;;57.70;;
17414;SDS011;8825;48.086;16.426;2023-01-01T02:47:10;84.13;;;56.23;;
17414;SDS011;8825;48.086;16.426;2023-01-01T02:50:26;57.60;;;51.15;;
17414;SDS011;8825;48.086;16.426;2023-01-01T02:52:32;61.75;;;52.65;;
17414;SDS011;8825;48.086;16.426;2023-01-01T02:55:11;130.70;;;66.25;;
17414;SDS011;8825;48.086;16.426;2023-01-01T02:57:49;78.62;;;55.20;;
17414;SDS011;8825;48.086;16.426;2023-01-01T03:00:16;201.32;;;73.00;;
17414;SDS011;8825;48.086;16.426;2023-01-01T03:06:04;120.95;;;57.20;;
17414;SDS011;8825;48.086;16.426;2023-01-01T03:09:50;134.47;;;63.55;;
17414;SDS011;8825;48.086;16.426;2023-01-01T03:11:40;121.02;;;62.62;;
17414;SDS011;8825;48.086;16.426;2023-01-01T03:17:09;51.45;;;46.00;;
17414;SDS011;8825;48.086;16.426;2023-01-01T03:19:36;101.00;;;54.58;;
17414;SDS011;8825;48.086;16.426;2023-01-01T03:22:06;61.83;;;52.03;;
17414;SDS011;8825;48.086;16.426;2023-01-01T03:24:55;79.80;;;46.77;;
17414;SDS011;8825;48.086;16.426;2023-01-01T03:30:05;108.87;;;55.90;;
17414;SDS011;8825;48.086;16.426;2023-01-01T03:32:40;73.17;;;52.00;;
17414;SDS011;8825;48.086;16.426;2023-01-01T03:35:23;55.43;;;49.48;;
17414;SDS011;8825;48.086;16.426;2023-01-01T03:37:53;60.38;;;50.45;;
17414;SDS011;8825;48.086;16.426;2023-01-01T03:40:24;58.65;;;52.30;;
17414;SDS011;8825;48.086;16.426;2023-01-01T03:43:01;78.90;;;70.05;;
17414;SDS011;8825;48.086;16.426;2023-01-01T03:45:28;58.20;;;51.88;;
17414;SDS011;8825;48.086;16.426;2023-01-01T03:47:58;60.05;;;53.45;;
17414;SDS011;8825;48.086;16.426;2023-01-01T03:50:29;56.65;;;50.58;;
17414;SDS011;8825;48.086;16.426;2023-01-01T03:53:18;54.77;;;48.98;;
17414;SDS011;8825;48.086;16.426;2023-01-01T03:55:37;56.08;;;50.17;;
17414;SDS011;8825;48.086;16.426;2023-01-01T04:01:03;56.88;;;50.78;;
17414;SDS011;8825;48.086;16.426;2023-01-01T04:03:32;58.70;;;52.35;;
17414;SDS011;8825;48.086;16.426;2023-01-01T04:06:01;55.67;;;49.65;;
17414;SDS011;8825;48.086;16.426;2023-01-01T04:08:31;58.40;;;51.48;;
17414;SDS011;8825;48.086;16.426;2023-01-01T04:11:00;53.70;;;47.90;;
17414;SDS011;8825;48.086;16.426;2023-01-01T04:13:44;66.10;;;58.95;;
17414;SDS011;8825;48.086;16.426;2023-01-01T04:16:03;57.27;;;51.00;;
17414;SDS011;8825;48.086;16.426;2023-01-01T04:18:31;58.75;;;51.00;;
17414;SDS011;8825;48.086;16.426;2023-01-01T04:20:58;54.85;;;46.10;;
17414;SDS011;8825;48.086;16.426;2023-01-01T04:23:26;54.45;;;46.48;;
17414;SDS011;8825;48.086;16.426;2023-01-01T04:25:53;52.45;;;46.45;;
17414;SDS011;8825;48.086;16.426;2023-01-01T04:28:21;48.05;;;42.15;;
17414;SDS011;8825;48.086;16.426;2023-01-01T04:30:48;50.70;;;43.95;;
17414;SDS011;8825;48.086;16.426;2023-01-01T04:33:15;56.00;;;47.17;;
17414;SDS011;8825;48.086;16.426;2023-01-01T04:35:43;48.48;;;42.85;;
17414;SDS011;8825;48.086;16.426;2023-01-01T04:38:11;46.30;;;40.70;;
17414;SDS011;8825;48.086;16.426;2023-01-01T04:40:39;49.50;;;44.25;;
17414;SDS011;8825;48.086;16.426;2023-01-01T04:43:07;49.53;;;41.83;;
17414;SDS011;8825;48.086;16.426;2023-01-01T04:45:34;46.42;;;40.90;;
17414;SDS011;8825;48.086;16.426;2023-01-01T04:48:03;47.67;;;41.25;;
17414;SDS011;8825;48.086;16.426;2023-01-01T04:50:30;45.20;;;40.30;;
17414;SDS011;8825;48.086;16.426;2023-01-01T04:52:58;44.80;;;38.40;;
17414;SDS011;8825;48.086;16.426;2023-01-01T04:55:25;48.02;;;42.05;;
17414;SDS011;8825;48.086;16.426;2023-01-01T04:57:53;48.45;;;40.60;;
17414;SDS011;8825;48.086;16.426;2023-01-01T05:00:20;46.25;;;40.88;;
17414;SDS011;8825;48.086;16.426;2023-01-01T05:02:48;42.80;;;37.58;;
17414;SDS011;8825;48.086;16.426;2023-01-01T05:05:16;45.60;;;40.45;;
17414;SDS011;8825;48.086;16.426;2023-01-01T05:07:43;50.50;;;44.45;;
17414;SDS011;8825;48.086;16.426;2023-01-01T05:10:11;50.60;;;43.35;;
17414;SDS011;8825;48.086;16.426;2023-01-01T05:12:38;65.30;;;57.10;;
17414;SDS011;8825;48.086;16.426;2023-01-01T05:15:06;74.82;;;64.58;;
17414;SDS011;8825;48.086;16.426;2023-01-01T05:17:34;64.95;;;57.85;;
17414;SDS011;8825;48.086;16.426;2023-01-01T05:20:02;66.15;;;54.95;;
17414;SDS011;8825;48.086;16.426;2023-01-01T05:22:29;68.97;;;57.88;;
17414;SDS011;8825;48.086;16.426;2023-01-01T05:24:57;61.13;;;53.02;;
17414;SDS011;8825;48.086;16.426;2023-01-01T05:27:24;67.45;;;57.10;;
17414;SDS011;8825;48.086;16.426;2023-01-01T05:29:52;62.93;;;53.50;;
17414;SDS011;8825;48.086;16.426;2023-01-01T05:32:20;69.20;;;58.05;;
17414;SDS011;8825;48.086;16.426;2023-01-01T05:34:47;63.33;;;52.88;;
17414;SDS011;8825;48.086;16.426;2023-01-01T05:37:16;65.50;;;52.93;;
17414;SDS011;8825;48.086;16.426;2023-01-01T05:39:43;103.27;;;67.87;;
17414;SDS011;8825;48.086;16.426;2023-01-01T05:42:11;70.57;;;58.92;;
17414;SDS011;8825;48.086;16.426;2023-01-01T05:44:40;61.28;;;52.27;;
17414;SDS011;8825;48.086;16.426;2023-01-01T05:47:07;59.80;;;50.00;;
17414;SDS011;8825;48.086;16.426;2023-01-01T05:49:35;61.20;;;51.42;;
17414;SDS011;8825;48.086;16.426;2023-01-01T05:52:04;68.15;;;55.83;;
17414;SDS011;8825;48.086;16.426;2023-01-01T05:54:31;55.65;;;48.65;;
17414;SDS011;8825;48.086;16.426;2023-01-01T05:56:59;62.70;;;53.08;;
17414;SDS011;8825;48.086;16.426;2023-01-01T05:59:26;65.47;;;53.35;;
17414;SDS011;8825;48.086;16.426;2023-01-01T06:01:54;62.85;;;54.33;;
17414;SDS011;8825;48.086;16.426;2023-01-01T06:04:21;60.15;;;52.50;;
17414;SDS011;8825;48.086;16.426;2023-01-01T06:06:49;66.62;;;54.73;;
17414;SDS011;8825;48.086;16.426;2023-01-01T06:09:16;62.05;;;52.95;;
17414;SDS011;8825;48.086;16.426;2023-01-01T06:11:44;66.10;;;58.92;;
17414;SDS011;8825;48.086;16.426;2023-01-01T06:14:11;81.10;;;64.30;;
17414;SDS011;8825;48.086;16.426;2023-01-01T06:16:39;77.27;;;63.73;;
17414;SDS011;8825;48.086;16.426;2023-01-01T06:19:07;56.88;;;49.73;;
17414;SDS011;8825;48.086;16.426;2023-01-01T06:21:35;60.48;;;53.83;;
17414;SDS011;8825;48.086;16.426;2023-01-01T06:24:02;62.13;;;55.30;;
17414;SDS011;8825;48.086;16.426;2023-01-01T06:26:31;57.25;;;51.02;;
17414;SDS011;8825;48.086;16.426;2023-01-01T06:28:59;62.25;;;55.60;;
17414;SDS011;8825;48.086;16.426;2023-01-01T06:31:28;63.58;;;56.60;;
17414;SDS011;8825;48.086;16.426;2023-01-01T06:33:56;65.72;;;58.55;;
17414;SDS011;8825;48.086;16.426;2023-01-01T06:36:24;54.63;;;48.63;;
17414;SDS011;8825;48.086;16.426;2023-01-01T06:38:53;56.35;;;49.45;;
17414;SDS011;8825;48.086;16.426;2023-01-01T06:41:23;61.58;;;54.83;;
17414;SDS011;8825;48.086;16.426;2023-01-01T06:43:53;64.05;;;56.75;;
17414;SDS011;8825;48.086;16.426;2023-01-01T06:46:23;63.50;;;54.23;;
17414;SDS011;8825;48.086;16.426;2023-01-01T06:48:52;63.20;;;56.00;;
17414;SDS011;8825;48.086;16.426;2023-01-01T06:51:22;62.08;;;54.00;;
17414;SDS011;8825;48.086;16.426;2023-01-01T06:53:52;63.38;;;56.25;;
17414;SDS011;8825;48.086;16.426;2023-01-01T06:56:20;64.67;;;57.13;;
17414;SDS011;8825;48.086;16.426;2023-01-01T06:58:48;62.45;;;55.58;;
17414;SDS011;8825;48.086;16.426;2023-01-01T07:01:17;61.68;;;53.68;;
17414;SDS011;8825;48.086;16.426;2023-01-01T07:03:52;61.15;;;54.50;;
17414;SDS011;8825;48.086;16.426;2023-01-01T07:06:32;57.62;;;51.10;;
17414;SDS011;8825;48.086;16.426;2023-01-01T07:09:01;59.60;;;52.75;;
17414;SDS011;8825;48.086;16.426;2023-01-01T07:11:29;61.50;;;53.83;;
17414;SDS011;8825;48.086;16.426;2023-01-01T07:13:57;61.18;;;53.52;;
17414;SDS011;8825;48.086;16.426;2023-01-01T07:16:25;72.60;;;62.27;;
17414;SDS011;8825;48.086;16.426;2023-01-01T07:18:52;66.47;;;56.92;;
17414;SDS011;8825;48.086;16.426;2023-01-01T07:21:29;100.62;;;89.70;;
17414;SDS011;8825;48.086;16.426;2023-01-01T07:23:59;122.25;;;107.35;;
17414;SDS011;8825;48.086;16.426;2023-01-01T07:26:28;112.72;;;95.47;;
17414;SDS011;8825;48.086;16.426;2023-01-01T07:28:57;126.40;;;108.87;;
17414;SDS011;8825;48.086;16.426;2023-01-01T07:31:25;130.27;;;104.92;;
17414;SDS011;8825;48.086;16.426;2023-01-01T07:33:53;235.75;;;127.50;;
17414;SDS011;8825;48.086;16.426;2023-01-01T07:36:20;160.93;;;119.05;;
17414;SDS011;8825;48.086;16.426;2023-01-01T07:38:48;194.57;;;121.28;;
17414;SDS011;8825;48.086;16.426;2023-01-01T07:41:16;189.15;;;122.45;;
17414;SDS011;8825;48.086;16.426;2023-01-01T07:43:43;163.92;;;117.30;;
17414;SDS011;8825;48.086;16.426;2023-01-01T07:46:11;137.35;;;107.52;;
17414;SDS011;8825;48.086;16.426;2023-01-01T07:48:41;132.52;;;113.30;;
17414;SDS011;8825;48.086;16.426;2023-01-01T07:51:08;150.55;;;117.80;;
17414;SDS011;8825;48.086;16.426;2023-01-01T07:53:36;151.20;;;119.15;;
17414;SDS011;8825;48.086;16.426;2023-01-01T07:56:04;138.75;;;107.17;;
17414;SDS011;8825;48.086;16.426;2023-01-01T07:58:31;154.07;;;114.32;;
17414;SDS011;8825;48.086;16.426;2023-01-01T08:00:59;239.82;;;126.62;;
17414;SDS011;8825;48.086;16.426;2023-01-01T08:03:26;190.68;;;118.85;;
17414;SDS011;8825;48.086;16.426;2023-01-01T08:05:54;160.25;;;114.55;;
17414;SDS011;8825;48.086;16.426;2023-01-01T08:08:21;176.27;;;125.75;;
17414;SDS011;8825;48.086;16.426;2023-01-01T08:10:49;143.20;;;119.10;;
17414;SDS011;8825;48.086;16.426;2023-01-01T08:13:16;145.07;;;116.42;;
17414;SDS011;8825;48.086;16.426;2023-01-01T08:15:44;119.72;;;100.45;;
17414;SDS011;8825;48.086;16.426;2023-01-01T08:18:11;140.37;;;117.15;;
17414;SDS011;8825;48.086;16.426;2023-01-01T08:20:39;121.70;;;102.87;;
17414;SDS011;8825;48.086;16.426;2023-01-01T08:23:06;121.33;;;100.20;;
17414;SDS011;8825;48.086;16.426;2023-01-01T08:25:34;115.28;;;95.87;;
17414;SDS011;8825;48.086;16.426;2023-01-01T08:28:01;126.27;;;107.10;;
17414;SDS011;8825;48.086;16.426;2023-01-01T08:30:29;112.30;;;95.97;;
17414;SDS011;8825;48.086;16.426;2023-01-01T08:32:56;141.75;;;108.35;;
17414;SDS011;8825;48.086;16.426;2023-01-01T08:35:24;111.15;;;95.85;;
17414;SDS011;8825;48.086;16.426;2023-01-01T08:37:52;116.97;;;98.17;;
17414;SDS011;8825;48.086;16.426;2023-01-01T08:40:19;161.28;;;102.72;;
17414;SDS011;8825;48.086;16.426;2023-01-01T08:42:47;189.85;;;105.27;;
17414;SDS011;8825;48.086;16.426;2023-01-01T08:45:14;212.82;;;115.35;;
17414;SDS011;8825;48.086;16.426;2023-01-01T08:47:42;312.15;;;119.53;;
17414;SDS011;8825;48.086;16.426;2023-01-01T08:50:09;218.80;;;113.80;;
17414;SDS011;8825;48.086;16.426;2023-01-01T08:52:37;248.80;;;118.82;;
17414;SDS011;8825;48.086;16.426;2023-01-01T08:55:05;208.32;;;120.17;;
17414;SDS011;8825;48.086;16.426;2023-01-01T08:57:32;263.00;;;128.10;;
17414;SDS011;8825;48.086;16.426;2023-01-01T09:00:00;360.80;;;133.67;;
17414;SDS011;8825;48.086;16.426;2023-01-01T09:02:27;189.37;;;115.75;;
17414;SDS011;8825;48.086;16.426;2023-01-01T09:04:55;393.52;;;133.40;;
17414;SDS011;8825;48.086;16.426;2023-01-01T09:07:22;244.80;;;122.67;;
17414;SDS011;8825;48.086;16.426;2023-01-01T09:09:50;176.72;;;108.90;;
17414;SDS011;8825;48.086;16.426;2023-01-01T09:12:17;298.52;;;116.62;;
17414;SDS011;8825;48.086;16.426;2023-01-01T09:14:47;175.32;;;109.42;;
17414;SDS011;8825;48.086;16.426;2023-01-01T09:17:15;228.90;;;103.40;;
17414;SDS011;8825;48.086;16.426;2023-01-01T09:19:43;154.23;;;94.72;;
17414;SDS011;8825;48.086;16.426;2023-01-01T09:22:10;120.62;;;89.87;;
17414;SDS011;8825;48.086;16.426;2023-01-01T09:24:38;134.75;;;89.22;;
17414;SDS011;8825;48.086;16.426;2023-01-01T09:27:06;98.97;;;81.80;;
17414;SDS011;8825;48.086;16.426;2023-01-01T09:29:33;154.32;;;88.37;;
17414;SDS011;8825;48.086;16.426;2023-01-01T09:32:01;111.52;;;89.10;;
17414;SDS011;8825;48.086;16.426;2023-01-01T09:34:29;102.50;;;86.95;;
17414;SDS011;8825;48.086;16.426;2023-01-01T09:36:56;90.15;;;80.20;;
17414;SDS011;8825;48.086;16.426;2023-01-01T09:39:24;86.02;;;75.45;;
17414;SDS011;8825;48.086;16.426;2023-01-01T09:49:53;92.93;;;66.87;;
17414;SDS011;8825;48.086;16.426;2023-01-01T09:52:23;75.43;;;60.63;;
17414;SDS011;8825;48.086;16.426;2023-01-01T09:54:58;68.57;;;56.07;;
17414;SDS011;8825;48.086;16.426;2023-01-01T09:57:28;61.80;;;53.43;;
17414;SDS011;8825;48.086;16.426;2023-01-01T09:59:57;53.13;;;47.30;;
17414;SDS011;8825;48.086;16.426;2023-01-01T10:05:01;51.73;;;46.23;;
17414;SDS011;8825;48.086;16.426;2023-01-01T10:10:28;47.67;;;42.97;;
17414;SDS011;8825;48.086;16.426;2023-01-01T10:15:52;37.07;;;33.27;;
17414;SDS011;8825;48.086;16.426;2023-01-01T10:18:30;38.83;;;34.83;;
17414;SDS011;8825;48.086;16.426;2023-01-01T10:21:21;35.07;;;31.53;;
17414;SDS011;8825;48.086;16.426;2023-01-01T10:23:51;36.87;;;33.10;;
17414;SDS011;8825;48.086;16.426;2023-01-01T10:26:21;38.10;;;34.13;;
17414;SDS011;8825;48.086;16.426;2023-01-01T10:29:26;37.30;;;33.53;;
17414;SDS011;8825;48.086;16.426;2023-01-01T10:31:37;35.80;;;32.20;;
17414;SDS011;8825;48.086;16.426;2023-01-01T10:34:05;36.07;;;32.30;;
17414;SDS011;8825;48.086;16.426;2023-01-01T10:36:45;36.47;;;32.70;;
17414;SDS011;8825;48.086;16.426;2023-01-01T10:39:15;35.43;;;31.67;;
17414;SDS011;8825;48.086;16.426;2023-01-01T10:41:44;35.37;;;31.63;;
17414;SDS011;8825;48.086;16.426;2023-01-01T10:44:14;36.43;;;31.90;;
17414;SDS011;8825;48.086;16.426;2023-01-01T10:46:45;31.07;;;27.77;;
17414;SDS011;8825;48.086;16.426;2023-01-01T10:49:14;28.30;;;25.30;;
17414;SDS011;8825;48.086;16.426;2023-01-01T10:51:42;24.33;;;21.73;;
17414;SDS011;8825;48.086;16.426;2023-01-01T10:54:28;24.23;;;21.57;;
17414;SDS011;8825;48.086;16.426;2023-01-01T10:57:13;25.07;;;21.17;;
17414;SDS011;8825;48.086;16.426;2023-01-01T10:59:43;22.80;;;19.77;;
17414;SDS011;8825;48.086;16.426;2023-01-01T11:04:51;21.93;;;19.07;;
17414;SDS011;8825;48.086;16.426;2023-01-01T11:07:26;23.13;;;20.53;;
17414;SDS011;8825;48.086;16.426;2023-01-01T11:09:56;20.83;;;18.57;;
17414;SDS011;8825;48.086;16.426;2023-01-01T11:12:26;22.00;;;19.27;;
17414;SDS011;8825;48.086;16.426;2023-01-01T11:14:58;22.40;;;18.83;;
17414;SDS011;8825;48.086;16.426;2023-01-01T11:17:29;22.50;;;19.80;;
17414;SDS011;8825;48.086;16.426;2023-01-01T11:19:59;21.80;;;18.90;;
17414;SDS011;8825;48.086;16.426;2023-01-01T11:22:36;21.97;;;19.73;;
17414;SDS011;8825;48.086;16.426;2023-01-01T11:27:47;23.40;;;19.97;;
17414;SDS011;8825;48.086;16.426;2023-01-01T11:30:20;23.13;;;19.53;;
17414;SDS011;8825;48.086;16.426;2023-01-01T11:32:54;23.40;;;20.90;;
17414;SDS011;8825;48.086;16.426;2023-01-01T11:35:24;24.63;;;22.00;;
17414;SDS011;8825;48.086;16.426;2023-01-01T11:37:54;24.03;;;20.67;;
17414;SDS011;8825;48.086;16.426;2023-01-01T11:40:28;22.17;;;19.60;;
17414;SDS011;8825;48.086;16.426;2023-01-01T11:42:57;25.90;;;21.70;;
17414;SDS011;8825;48.086;16.426;2023-01-01T11:45:27;23.60;;;20.67;;
17414;SDS011;8825;48.086;16.426;2023-01-01T11:48:03;24.60;;;21.97;;
17414;SDS011;8825;48.086;16.426;2023-01-01T11:50:35;22.43;;;19.60;;
17414;SDS011;8825;48.086;16.426;2023-01-01T11:56:06;22.60;;;20.20;;
17414;SDS011;8825;48.086;16.426;2023-01-01T12:01:25;21.23;;;19.03;;
17414;SDS011;8825;48.086;16.426;2023-01-01T12:04:51;22.23;;;19.93;;
17414;SDS011;8825;48.086;16.426;2023-01-01T12:06:54;22.43;;;20.13;;
17414;SDS011;8825;48.086;16.426;2023-01-01T12:09:31;23.03;;;20.60;;
17414;SDS011;8825;48.086;16.426;2023-01-01T12:12:04;24.27;;;21.33;;
17414;SDS011;8825;48.086;16.426;2023-01-01T12:14:41;22.80;;;20.33;;
17414;SDS011;8825;48.086;16.426;2023-01-01T12:17:57;26.23;;;22.07;;
17414;SDS011;8825;48.086;16.426;2023-01-01T12:20:16;24.73;;;21.87;;
17414;SDS011;8825;48.086;16.426;2023-01-01T12:22:54;24.77;;;21.63;;
17414;SDS011;8825;48.086;16.426;2023-01-01T12:25:23;25.73;;;23.03;;
17414;SDS011;8825;48.086;16.426;2023-01-01T12:33:40;23.37;;;20.97;;
17414;SDS011;8825;48.086;16.426;2023-01-01T12:42:03;24.33;;;21.73;;
17414;SDS011;8825;48.086;16.426;2023-01-01T12:58:25;26.40;;;22.83;;
17414;SDS011;8825;48.086;16.426;2023-01-01T13:00:58;27.00;;;24.13;;
17414;SDS011;8825;48.086;16.426;2023-01-01T13:03:32;29.27;;;26.17;;
17414;SDS011;8825;48.086;16.426;2023-01-01T13:05:58;27.37;;;24.03;;
17414;SDS011;8825;48.086;16.426;2023-01-01T13:08:28;27.43;;;24.60;;
17414;SDS011;8825;48.086;16.426;2023-01-01T13:10:56;29.77;;;25.83;;
17414;SDS011;8825;48.086;16.426;2023-01-01T13:13:26;33.47;;;27.90;;
17414;SDS011;8825;48.086;16.426;2023-01-01T13:15:54;34.27;;;28.87;;
17414;SDS011;8825;48.086;16.426;2023-01-01T13:18:27;34.23;;;29.07;;
17414;SDS011;8825;48.086;16.426;2023-01-01T13:21:03;31.23;;;27.37;;
17414;SDS011;8825;48.086;16.426;2023-01-01T13:45:26;41.73;;;36.73;;
17414;SDS011;8825;48.086;16.426;2023-01-01T13:48:11;41.57;;;36.80;;
17414;SDS011;8825;48.086;16.426;2023-01-01T13:53:26;39.43;;;35.13;;
17414;SDS011;8825;48.086;16.426;2023-01-01T14:01:47;43.00;;;37.53;;
17414;SDS011;8825;48.086;16.426;2023-01-01T14:04:23;39.80;;;35.47;;
17414;SDS011;8825;48.086;16.426;2023-01-01T14:06:48;39.37;;;34.13;;
17414;SDS011;8825;48.086;16.426;2023-01-01T14:09:23;36.93;;;32.83;;
17414;SDS011;8825;48.086;16.426;2023-01-01T14:11:47;39.03;;;34.80;;
17414;SDS011;8825;48.086;16.426;2023-01-01T14:14:33;38.53;;;34.03;;
17414;SDS011;8825;48.086;16.426;2023-01-01T14:16:58;39.57;;;34.40;;
17414;SDS011;8825;48.086;16.426;2023-01-01T14:19:23;36.50;;;31.93;;
17414;SDS011;8825;48.086;16.426;2023-01-01T14:21:53;37.13;;;32.37;;
17414;SDS011;8825;48.086;16.426;2023-01-01T14:24:21;36.80;;;30.97;;
17414;SDS011;8825;48.086;16.426;2023-01-01T14:26:50;39.13;;;31.83;;
17414;SDS011;8825;48.086;16.426;2023-01-01T14:29:27;35.43;;;30.83;;
17414;SDS011;8825;48.086;16.426;2023-01-01T14:32:02;32.53;;;28.17;;
17414;SDS011;8825;48.086;16.426;2023-01-01T14:34:30;32.03;;;27.87;;
17414;SDS011;8825;48.086;16.426;2023-01-01T14:37:01;34.37;;;27.63;;
17414;SDS011;8825;48.086;16.426;2023-01-01T14:39:32;34.37;;;28.23;;
17414;SDS011;8825;48.086;16.426;2023-01-01T14:42:08;35.50;;;30.00;;
17414;SDS011;8825;48.086;16.426;2023-01-01T14:44:41;35.30;;;30.20;;
17414;SDS011;8825;48.086;16.426;2023-01-01T14:47:26;35.70;;;29.20;;
17414;SDS011;8825;48.086;16.426;2023-01-01T14:50:18;39.63;;;30.50;;
17414;SDS011;8825;48.086;16.426;2023-01-01T14:52:30;36.00;;;30.57;;
17414;SDS011;8825;48.086;16.426;2023-01-01T14:55:00;31.77;;;28.10;;
17414;SDS011;8825;48.086;16.426;2023-01-01T14:57:34;33.27;;;28.33;;
17414;SDS011;8825;48.086;16.426;2023-01-01T14:59:59;30.20;;;26.83;;
17414;SDS011;8825;48.086;16.426;2023-01-01T15:02:28;37.27;;;31.03;;
17414;SDS011;8825;48.086;16.426;2023-01-01T15:04:57;37.93;;;31.03;;
17414;SDS011;8825;48.086;16.426;2023-01-01T15:07:27;36.73;;;30.90;;
17414;SDS011;8825;48.086;16.426;2023-01-01T15:09:57;37.10;;;30.27;;
17414;SDS011;8825;48.086;16.426;2023-01-01T15:12:28;38.27;;;31.10;;
17414;SDS011;8825;48.086;16.426;2023-01-01T15:14:58;36.27;;;32.07;;
17414;SDS011;8825;48.086;16.426;2023-01-01T15:17:26;36.20;;;31.00;;
17414;SDS011;8825;48.086;16.426;2023-01-01T15:20:01;40.13;;;33.03;;
17414;SDS011;8825;48.086;16.426;2023-01-01T15:22:33;39.57;;;33.73;;
17414;SDS011;8825;48.086;16.426;2023-01-01T15:25:05;35.23;;;29.20;;
17414;SDS011;8825;48.086;16.426;2023-01-01T15:27:35;34.17;;;28.23;;
17414;SDS011;8825;48.086;16.426;2023-01-01T15:30:03;36.47;;;31.00;;
17414;SDS011;8825;48.086;16.426;2023-01-01T15:32:33;37.63;;;32.20;;
17414;SDS011;8825;48.086;16.426;2023-01-01T15:35:17;38.23;;;31.97;;
17414;SDS011;8825;48.086;16.426;2023-01-01T15:37:35;32.40;;;28.20;;
17414;SDS011;8825;48.086;16.426;2023-01-01T15:47:56;33.57;;;28.60;;
17414;SDS011;8825;48.086;16.426;2023-01-01T15:50:31;39.87;;;32.87;;
17414;SDS011;8825;48.086;16.426;2023-01-01T15:52:57;35.73;;;31.83;;
17414;SDS011;8825;48.086;16.426;2023-01-01T15:55:35;40.90;;;33.30;;
17414;SDS011;8825;48.086;16.426;2023-01-01T15:58:06;33.77;;;29.37;;
17414;SDS011;8825;48.086;16.426;2023-01-01T16:00:35;35.30;;;30.30;;
17414;SDS011;8825;48.086;16.426;2023-01-01T16:03:18;37.53;;;31.73;;
17414;SDS011;8825;48.086;16.426;2023-01-01T16:05:53;33.50;;;29.23;;
17414;SDS011;8825;48.086;16.426;2023-01-01T16:08:18;34.90;;;28.87;;
17414;SDS011;8825;48.086;16.426;2023-01-01T16:10:49;32.73;;;26.53;;
17414;SDS011;8825;48.086;16.426;2023-01-01T16:13:18;30.87;;;26.77;;
17414;SDS011;8825;48.086;16.426;2023-01-01T16:15:52;31.73;;;24.43;;
17414;SDS011;8825;48.086;16.426;2023-01-01T16:18:23;27.07;;;22.63;;
17414;SDS011;8825;48.086;16.426;2023-01-01T16:20:52;37.37;;;23.53;;
17414;SDS011;8825;48.086;16.426;2023-01-01T16:23:21;40.73;;;25.10;;
17414;SDS011;8825;48.086;16.426;2023-01-01T16:25:48;24.30;;;21.83;;
17414;SDS011;8825;48.086;16.426;2023-01-01T16:28:16;26.93;;;23.27;;
17414;SDS011;8825;48.086;16.426;2023-01-01T16:30:43;30.57;;;24.40;;
17414;SDS011;8825;48.086;16.426;2023-01-01T16:33:15;29.80;;;23.67;;